createdAt,value
2022-07-29T06:21:38.665Z,1.02
2022-07-29T06:24:09.717Z,1.02
2022-07-29T06:26:39.652Z,1.20
2022-07-29T06:29:07.586Z,1.20
2022-07-29T06:31:35.287Z,1.00
2022-07-29T06:34:03.462Z,1.30
2022-07-29T06:36:31.162Z,1.20
2022-07-29T06:38:59.908Z,0.82
2022-07-29T06:41:30.534Z,0.90
2022-07-29T06:43:57.947Z,0.85
2022-07-29T06:46:25.394Z,1.10
2022-07-29T06:48:53.567Z,1.10
2022-07-29T06:51:23.323Z,0.90
2022-07-29T06:54:00.168Z,1.15
2022-07-29T06:56:38.400Z,1.00
2022-07-29T06:59:07.931Z,1.15
2022-07-29T07:01:35.490Z,1.00
2022-07-29T07:04:03.128Z,0.97
2022-07-29T07:06:30.648Z,1.00
2022-07-29T07:08:58.078Z,1.00
2022-07-29T07:11:25.534Z,1.00
2022-07-29T07:13:56.185Z,1.10
2022-07-29T07:16:26.834Z,1.08
2022-07-29T07:18:54.385Z,1.00
2022-07-29T07:21:21.884Z,1.10
2022-07-29T07:23:49.299Z,0.82
2022-07-29T07:26:16.743Z,1.05
2022-07-29T07:28:44.275Z,1.20
2022-07-29T07:31:13.439Z,1.20
2022-07-29T07:33:40.909Z,1.00
2022-07-29T07:36:08.373Z,0.90
2022-07-29T07:38:36.307Z,1.10
2022-07-29T07:41:04.081Z,0.85
2022-07-29T07:43:31.573Z,1.00
2022-07-29T07:45:59.072Z,0.90
2022-07-29T07:48:27.884Z,1.13
2022-07-29T07:50:55.335Z,1.00
2022-07-29T07:53:23.028Z,1.05
2022-07-29T07:56:10.000Z,1.10
2022-07-29T07:58:37.925Z,0.93
2022-07-29T08:01:05.477Z,0.90
2022-07-29T08:03:34.587Z,1.50
2022-07-29T08:06:02.124Z,2.07
2022-07-29T08:08:29.545Z,1.27
2022-07-29T08:10:57.774Z,0.98
2022-07-29T08:13:26.277Z,1.10
2022-07-29T08:15:59.072Z,1.20
2022-07-29T08:18:26.701Z,1.00
2022-07-29T08:20:55.584Z,1.20
2022-07-29T08:23:23.706Z,1.20
2022-07-29T08:25:54.952Z,1.30
2022-07-29T08:28:25.709Z,1.10
2022-07-29T08:30:53.514Z,1.30
2022-07-29T08:33:20.992Z,1.55
2022-07-29T08:35:48.408Z,1.10
2022-07-29T08:38:17.157Z,1.27
2022-07-29T08:40:44.653Z,1.10
2022-07-29T08:43:12.094Z,1.60
2022-07-29T08:45:47.127Z,1.20
2022-07-29T08:48:16.167Z,1.20
2022-07-29T08:50:46.273Z,1.10
2022-07-29T08:53:14.963Z,2.10
2022-07-29T08:55:44.496Z,1.33
2022-07-29T08:58:12.276Z,1.38
2022-07-29T09:00:43.992Z,1.52
2022-07-29T09:03:14.425Z,1.20
2022-07-29T09:05:47.753Z,1.33
2022-07-29T09:08:16.070Z,1.75
2022-07-29T09:10:45.159Z,1.30
2022-07-29T09:13:12.572Z,1.40
2022-07-29T09:15:40.006Z,1.20
2022-07-29T09:18:07.458Z,1.20
2022-07-29T09:20:48.894Z,1.35
2022-07-29T09:23:23.313Z,1.92
2022-07-29T09:25:53.483Z,1.30
2022-07-29T09:28:20.862Z,1.80
2022-07-29T09:30:54.872Z,1.40
2022-07-29T09:33:22.677Z,1.55
2022-07-29T09:36:00.857Z,1.55
2022-07-29T09:38:29.431Z,1.67
2022-07-29T09:41:05.766Z,1.90
2022-07-29T09:43:34.063Z,1.30
2022-07-29T09:46:12.462Z,1.50
2022-07-29T09:48:40.168Z,1.60
2022-07-29T09:51:20.575Z,1.20
2022-07-29T09:53:48.130Z,1.40
2022-07-29T09:56:16.906Z,1.48
2022-07-29T09:58:45.007Z,1.50
2022-07-29T10:01:12.609Z,1.50
2022-07-29T10:03:52.303Z,1.35
2022-07-29T10:06:19.779Z,1.23
2022-07-29T10:08:48.144Z,1.27
2022-07-29T10:11:17.675Z,1.60
2022-07-29T10:13:46.568Z,1.73
2022-07-29T10:16:14.366Z,1.30
2022-07-29T10:18:42.178Z,3.13
2022-07-29T10:21:10.461Z,1.55
2022-07-29T10:23:46.824Z,1.57
2022-07-29T10:26:15.415Z,1.30
2022-07-29T10:28:44.197Z,1.50
2022-07-29T10:31:15.794Z,1.38
2022-07-29T10:33:49.856Z,1.40
2022-07-29T10:36:26.125Z,1.60
2022-07-29T10:38:57.617Z,1.10
2022-07-29T10:41:49.657Z,1.10
2022-07-29T10:44:23.240Z,1.30
2022-07-29T10:46:52.367Z,1.67
2022-07-29T10:49:24.830Z,1.20
2022-07-29T10:52:00.821Z,1.15
2022-07-29T10:54:43.717Z,1.50
2022-07-29T10:57:15.346Z,1.43
2022-07-29T10:59:46.098Z,1.52
2022-07-29T11:02:42.387Z,1.20
2022-07-29T11:05:12.048Z,1.37
2022-07-29T11:07:45.813Z,1.17
2022-07-29T11:10:27.002Z,2.25
2022-07-29T11:12:59.265Z,1.55
2022-07-29T11:15:28.688Z,1.40
2022-07-29T11:18:05.606Z,1.40
2022-07-29T11:20:33.676Z,1.50
2022-07-29T11:23:01.787Z,1.30
2022-07-29T11:25:50.949Z,1.45
2022-07-29T11:28:23.241Z,1.33
2022-07-29T11:30:56.069Z,1.42
2022-07-29T11:33:54.458Z,1.48
2022-07-29T11:36:17.578Z,1.35
2022-07-29T11:38:45.053Z,1.30
2022-07-29T11:41:26.152Z,1.20
2022-07-29T11:43:55.910Z,1.30
2022-07-29T11:46:41.959Z,1.50
2022-07-29T11:49:11.151Z,1.60
2022-07-29T11:51:48.087Z,1.27
2022-07-29T11:54:17.469Z,1.42
2022-07-29T11:56:47.596Z,1.45
2022-07-29T11:59:15.860Z,1.35
2022-07-29T12:02:06.669Z,1.20
2022-07-29T12:04:51.646Z,1.33
2022-07-29T12:07:20.177Z,1.40
2022-07-29T12:09:51.287Z,2.00
2022-07-29T12:12:19.771Z,1.35
2022-07-29T12:14:47.804Z,1.42
2022-07-29T12:17:27.091Z,1.30
2022-07-29T12:20:00.448Z,1.40
2022-07-29T12:22:30.748Z,1.30
2022-07-29T12:25:31.996Z,1.50
2022-07-29T12:28:00.241Z,1.30
2022-07-29T12:30:36.637Z,1.70
2022-07-29T12:33:11.969Z,1.60
2022-07-29T12:35:41.875Z,1.50
2022-07-29T12:38:11.397Z,1.20
2022-07-29T12:40:38.892Z,1.30
2022-07-29T12:43:13.357Z,1.50
2022-07-29T12:45:41.487Z,2.03
2022-07-29T12:48:10.183Z,1.40
2022-07-29T12:50:38.121Z,1.48
2022-07-29T12:53:13.320Z,1.70
2022-07-29T12:55:41.684Z,1.63
2022-07-29T12:58:09.119Z,1.30
2022-07-29T13:00:36.566Z,1.60
2022-07-29T13:03:04.132Z,1.20
2022-07-29T13:05:44.608Z,1.50
2022-07-29T13:08:20.419Z,1.20
2022-07-29T13:10:49.600Z,2.20
2022-07-29T13:13:17.147Z,1.70
2022-07-29T13:15:47.831Z,1.40
2022-07-29T13:18:31.003Z,1.40
2022-07-29T13:20:58.845Z,1.70
2022-07-29T13:23:27.605Z,1.38
2022-07-29T13:25:55.040Z,1.37
2022-07-29T13:28:22.908Z,1.20
2022-07-29T13:30:50.335Z,1.60
2022-07-29T13:33:17.779Z,1.40
2022-07-29T13:35:45.172Z,1.50
2022-07-29T13:38:12.573Z,1.55
2022-07-29T13:40:41.349Z,1.60
2022-07-29T13:43:10.770Z,1.55
2022-07-29T13:45:38.260Z,1.55
2022-07-29T13:48:07.227Z,1.50
2022-07-29T13:50:34.658Z,1.48
2022-07-29T13:53:02.057Z,1.70
2022-07-29T13:55:29.455Z,1.55
2022-07-29T13:57:58.206Z,1.50
2022-07-29T14:00:25.743Z,1.70
2022-07-29T14:02:53.151Z,1.70
2022-07-29T14:05:20.570Z,1.50
2022-07-29T14:07:48.017Z,1.52
2022-07-29T14:10:19.944Z,1.35
2022-07-29T14:12:47.660Z,1.73
2022-07-29T14:15:16.458Z,1.70
2022-07-29T14:17:43.867Z,1.73
2022-07-29T14:20:11.679Z,1.85
2022-07-29T14:22:42.340Z,1.70
2022-07-29T14:25:14.347Z,1.80
2022-07-29T14:27:42.804Z,1.67
2022-07-29T14:30:10.844Z,1.70
2022-07-29T14:32:39.634Z,1.40
2022-07-29T14:35:07.487Z,1.60
2022-07-29T14:37:39.887Z,1.77
2022-07-29T14:40:08.502Z,1.80
2022-07-29T14:42:37.077Z,1.57
2022-07-29T14:45:04.914Z,1.63
2022-07-29T14:47:33.247Z,1.67
2022-07-29T14:50:02.013Z,1.58
2022-07-29T14:52:29.419Z,2.00
2022-07-29T14:54:56.850Z,1.80
2022-07-29T14:57:24.265Z,1.65
2022-07-29T14:59:51.681Z,1.88
2022-07-29T15:02:19.121Z,1.83
2022-07-29T15:04:46.986Z,1.77
2022-07-29T15:07:15.762Z,1.70
2022-07-29T15:09:49.673Z,1.77
2022-07-29T15:12:17.526Z,1.77
2022-07-29T15:14:44.936Z,2.10
2022-07-29T15:17:12.389Z,1.70
2022-07-29T15:19:39.971Z,1.90
2022-07-29T15:22:13.830Z,1.70
2022-07-29T15:24:42.661Z,1.67
2022-07-29T15:27:14.849Z,1.90
2022-07-29T15:29:42.488Z,1.80
2022-07-29T15:32:09.977Z,1.50
2022-07-29T15:34:40.157Z,1.90
2022-07-29T15:37:07.697Z,2.00
2022-07-29T15:39:35.201Z,1.90
2022-07-29T15:42:04.301Z,1.75
2022-07-29T15:44:31.724Z,1.60
2022-07-29T15:47:05.035Z,1.60
2022-07-29T15:49:47.339Z,1.67
2022-07-29T15:52:17.263Z,1.50
2022-07-29T15:54:44.737Z,1.80
2022-07-29T15:57:13.844Z,1.50
2022-07-29T15:59:41.256Z,1.40
2022-07-29T16:02:08.829Z,1.58
2022-07-29T16:04:36.555Z,1.40
2022-07-29T16:07:04.061Z,1.63
2022-07-29T16:09:31.452Z,2.10
2022-07-29T16:11:58.859Z,1.45
2022-07-29T16:14:28.409Z,1.90
2022-07-29T16:16:56.540Z,1.65
2022-07-29T16:19:24.380Z,2.05
2022-07-29T16:21:51.784Z,1.60
2022-07-29T16:24:19.402Z,1.58
2022-07-29T16:26:46.892Z,1.42
2022-07-29T16:29:14.947Z,1.40
2022-07-29T16:31:44.015Z,1.40
2022-07-29T16:34:11.520Z,1.83
2022-07-29T16:36:38.892Z,1.65
2022-07-29T16:39:06.924Z,1.33
2022-07-29T16:41:34.324Z,1.50
2022-07-29T16:44:01.707Z,1.67
2022-07-29T16:46:29.142Z,1.60
2022-07-29T16:48:58.869Z,1.95
2022-07-29T16:51:26.253Z,2.10
2022-07-29T16:53:53.767Z,1.90
2022-07-29T16:56:21.368Z,1.70
2022-07-29T16:58:48.783Z,2.83
2022-07-29T17:01:17.114Z,2.10
2022-07-29T17:04:00.410Z,1.60
2022-07-29T17:06:29.822Z,1.70
2022-07-29T17:08:57.327Z,1.60
2022-07-29T17:11:52.530Z,1.70
2022-07-29T17:14:12.247Z,1.77
2022-07-29T17:16:39.737Z,1.63
2022-07-29T17:19:07.249Z,1.52
2022-07-29T17:21:36.039Z,1.80
2022-07-29T17:24:15.796Z,1.60
2022-07-29T17:26:44.369Z,1.70
2022-07-29T17:29:11.788Z,1.50
2022-07-29T17:31:39.337Z,1.60
2022-07-29T17:34:08.622Z,1.50
2022-07-29T17:36:37.542Z,1.70
2022-07-29T18:43:14.458Z,1.58
2022-07-29T18:45:42.549Z,1.95
2022-07-29T18:48:11.875Z,2.80
2022-07-29T18:50:40.762Z,1.80
2022-07-29T18:53:08.307Z,1.80
2022-07-29T18:55:35.755Z,1.52
2022-07-29T18:58:03.175Z,2.25
2022-07-29T19:00:32.032Z,1.63
2022-07-29T19:02:59.899Z,1.13
2022-07-29T19:05:27.522Z,1.77
2022-07-29T19:07:56.125Z,1.40
2022-07-29T19:10:23.718Z,1.80
2022-07-29T19:12:51.169Z,1.52
2022-07-29T19:15:20.202Z,1.23
2022-07-29T19:20:16.827Z,1.67
2022-07-29T19:27:38.750Z,1.90
2022-07-29T19:30:09.265Z,1.73
2022-07-29T19:32:39.449Z,2.22
2022-07-29T19:35:33.018Z,1.95
2022-07-29T19:38:02.586Z,1.90
2022-07-29T19:42:57.356Z,2.15
2022-07-29T19:45:25.631Z,1.98
2022-07-29T19:48:01.545Z,2.10
2022-07-29T19:50:29.765Z,2.13
2022-07-29T19:52:57.265Z,2.30
2022-07-29T19:55:26.130Z,2.20
2022-07-29T19:57:53.686Z,2.00
2022-07-29T20:00:23.719Z,2.38
2022-07-29T20:02:52.663Z,2.42
2022-07-29T20:05:28.105Z,3.20
2022-07-29T20:07:55.792Z,2.00
2022-07-29T20:10:23.200Z,2.35
2022-07-29T20:12:53.827Z,1.90
2022-07-29T20:15:22.757Z,2.30
2022-07-29T20:17:52.873Z,2.20
2022-07-29T20:20:25.458Z,2.55
2022-07-29T20:22:55.361Z,2.47
2022-07-29T20:25:23.003Z,2.53
2022-07-29T20:27:54.369Z,3.40
2022-07-29T20:30:21.962Z,3.08
2022-07-29T20:32:49.475Z,2.28
2022-07-29T20:35:16.925Z,2.92
2022-07-29T20:37:51.961Z,2.38
2022-07-29T20:40:24.680Z,2.65
2022-07-29T20:42:53.468Z,2.87
2022-07-29T20:45:21.011Z,2.87
2022-07-29T20:47:48.539Z,3.10
2022-07-29T20:50:16.040Z,3.10
2022-07-29T20:52:44.132Z,3.08
2022-07-29T20:55:11.970Z,2.60
2022-07-29T20:57:40.058Z,2.60
2022-07-29T21:00:09.762Z,2.38
2022-07-29T21:02:37.633Z,2.05
2022-07-29T21:05:05.370Z,2.50
2022-07-29T21:07:35.636Z,3.22
2022-07-29T21:10:03.270Z,2.58
2022-07-29T21:12:30.691Z,2.50
2022-07-29T21:14:58.447Z,2.50
2022-07-29T21:17:31.474Z,3.05
2022-07-29T21:19:58.935Z,2.40
2022-07-29T21:22:26.363Z,3.20
2022-07-29T21:24:53.792Z,2.67
2022-07-29T21:27:38.909Z,2.92
2022-07-29T21:30:07.134Z,3.33
2022-07-29T21:32:35.934Z,2.70
2022-07-29T21:35:03.428Z,3.00
2022-07-29T21:37:42.751Z,2.17
2022-07-29T21:40:10.979Z,2.40
2022-07-29T21:42:38.400Z,2.88
2022-07-29T21:45:06.145Z,3.00
2022-07-29T21:47:33.650Z,2.63
2022-07-29T21:50:02.442Z,3.08
2022-07-29T21:52:29.886Z,2.77
2022-07-29T21:54:57.488Z,3.20
2022-07-29T21:57:26.414Z,2.75
2022-07-29T21:59:53.823Z,3.13
2022-07-29T22:02:21.231Z,2.80
2022-07-29T22:04:48.870Z,3.20
2022-07-29T22:07:17.701Z,2.90
2022-07-29T22:09:45.920Z,2.97
2022-07-29T22:12:13.358Z,2.78
2022-07-29T22:14:40.781Z,3.35
2022-07-29T22:17:08.245Z,3.30
2022-07-29T22:19:35.758Z,2.90
2022-07-29T22:22:03.198Z,2.75
2022-07-29T22:24:31.999Z,2.60
2022-07-29T22:26:59.609Z,2.60
2022-07-29T22:29:27.816Z,3.55
2022-07-29T22:31:55.194Z,3.35
2022-07-29T22:34:22.643Z,3.20
2022-07-29T22:36:50.093Z,2.90
2022-07-29T22:39:17.553Z,3.05
2022-07-29T22:41:46.378Z,3.55
2022-07-29T22:44:13.816Z,3.10
2022-07-29T22:46:41.269Z,2.90
2022-07-29T22:49:08.780Z,3.33
2022-07-29T22:51:36.571Z,4.47
2022-07-29T22:54:04.126Z,3.03
2022-07-29T22:56:31.565Z,3.35
2022-07-29T22:59:00.295Z,3.50
2022-07-29T23:01:37.813Z,3.20
2022-07-29T23:04:05.800Z,3.95
2022-07-29T23:06:33.353Z,3.50
2022-07-29T23:09:00.794Z,3.50
2022-07-29T23:11:28.209Z,3.58
2022-07-29T23:13:55.665Z,3.20
2022-07-29T23:16:26.464Z,3.63
2022-07-29T23:18:54.513Z,4.38
2022-07-29T23:21:21.966Z,3.22
2022-07-29T23:23:49.608Z,2.85
2022-07-29T23:26:17.595Z,3.33
2022-07-29T23:28:45.244Z,3.72
2022-07-29T23:31:13.494Z,3.90
2022-07-29T23:33:42.621Z,3.58
2022-07-29T23:36:10.100Z,2.92
2022-07-29T23:38:40.766Z,2.80
2022-07-29T23:41:09.632Z,2.92
2022-07-29T23:43:37.185Z,3.00
2022-07-29T23:46:04.660Z,3.17
2022-07-29T23:48:33.717Z,3.25
2022-07-29T23:51:02.489Z,3.55
2022-07-29T23:53:29.995Z,3.50
2022-07-29T23:55:57.642Z,3.47
2022-07-29T23:58:25.070Z,3.63
